createdAt,value
2023-02-09T00:03:57.203Z,10.35
2023-02-09T00:08:59.118Z,8.30
2023-02-09T00:14:00.534Z,9.68
2023-02-09T00:19:01.998Z,9.20
2023-02-09T00:24:04.251Z,9.90
2023-02-09T00:29:06.785Z,8.30
2023-02-09T00:34:08.840Z,7.33
2023-02-09T00:39:10.385Z,8.55
2023-02-09T00:44:12.314Z,8.50
2023-02-09T00:49:13.770Z,9.32
2023-02-09T00:54:16.933Z,9.27
2023-02-09T00:59:20.011Z,7.43
2023-02-09T01:04:21.650Z,8.35
2023-02-09T01:09:23.533Z,10.23
2023-02-09T01:14:25.044Z,7.97
2023-02-09T01:19:26.797Z,7.93
2023-02-09T01:24:29.447Z,7.15
2023-02-09T01:29:30.887Z,9.23
2023-02-09T01:34:32.515Z,8.27
2023-02-09T01:39:33.951Z,11.32
2023-02-09T01:44:35.507Z,9.40
2023-02-09T01:49:38.128Z,9.13
2023-02-09T01:54:44.579Z,10.25
2023-02-09T01:59:51.703Z,8.70
2023-02-09T02:04:53.770Z,9.10
2023-02-09T02:09:56.044Z,9.88
2023-02-09T02:14:57.475Z,10.07
2023-02-09T02:20:53.225Z,10.35
2023-02-09T02:26:50.060Z,12.65
2023-02-09T02:32:17.719Z,10.18
2023-02-09T02:37:37.179Z,9.38
2023-02-09T02:42:49.182Z,10.63
2023-02-09T02:48:15.526Z,10.38
2023-02-09T02:53:21.596Z,12.35
2023-02-09T02:58:25.628Z,11.35
2023-02-09T03:03:33.155Z,11.95
2023-02-09T03:09:01.471Z,10.15
2023-02-09T03:14:33.268Z,11.30
2023-02-09T03:19:48.381Z,10.70
2023-02-09T03:25:04.182Z,11.18
2023-02-09T03:30:08.596Z,12.05
2023-02-09T03:35:12.808Z,13.10
2023-02-09T03:40:14.309Z,14.35
2023-02-09T03:45:15.791Z,13.73
2023-02-09T03:50:17.369Z,11.75
2023-02-09T03:55:18.776Z,12.25
2023-02-09T04:00:20.419Z,14.80
2023-02-09T04:05:22.870Z,10.90
2023-02-09T04:10:24.465Z,12.32
2023-02-09T04:15:25.907Z,14.60
2023-02-09T04:20:27.404Z,12.50
2023-02-09T04:25:28.822Z,13.00
2023-02-09T04:30:30.309Z,11.95
2023-02-09T04:35:31.720Z,13.43
2023-02-09T04:40:33.146Z,12.13
2023-02-09T04:45:37.414Z,14.38
2023-02-09T04:50:38.931Z,11.40
2023-02-09T04:55:42.322Z,11.75
2023-02-09T05:00:43.964Z,14.15
2023-02-09T05:05:45.661Z,16.35
2023-02-09T05:10:47.373Z,13.70
2023-02-09T05:15:49.072Z,12.88
2023-02-09T05:20:50.854Z,14.18
2023-02-09T05:25:52.370Z,14.85
2023-02-09T05:30:54.129Z,13.27
2023-02-09T05:35:55.860Z,13.88
2023-02-09T05:40:57.361Z,13.10
2023-02-09T05:45:58.889Z,16.23
2023-02-09T05:51:00.331Z,14.40
2023-02-09T05:56:01.726Z,17.92
2023-02-09T06:01:05.293Z,16.08
2023-02-09T06:06:07.024Z,17.08
2023-02-09T06:11:08.479Z,14.50
2023-02-09T06:16:10.161Z,14.98
2023-02-09T06:21:12.136Z,21.45
2023-02-09T06:26:15.860Z,13.52
2023-02-09T06:31:17.583Z,15.15
2023-02-09T06:36:19.152Z,16.45
2023-02-09T06:41:20.604Z,16.95
2023-02-09T06:46:22.198Z,16.13
2023-02-09T06:51:24.123Z,14.93
2023-02-09T06:56:25.859Z,16.95
2023-02-09T07:01:27.334Z,16.33
2023-02-09T07:06:28.920Z,18.25
2023-02-09T07:11:30.546Z,17.10
2023-02-09T07:16:32.017Z,18.58
2023-02-09T07:21:33.499Z,23.17
2023-02-09T07:26:34.926Z,16.70
2023-02-09T07:31:36.436Z,13.90
2023-02-09T07:36:38.087Z,18.50
2023-02-09T07:41:39.759Z,17.83
2023-02-09T07:46:41.364Z,18.33
2023-02-09T07:51:43.566Z,17.50
2023-02-09T07:56:45.000Z,21.10
2023-02-09T08:01:46.599Z,19.13
2023-02-09T08:06:48.320Z,18.77
2023-02-09T08:11:55.732Z,18.90
2023-02-09T08:17:20.972Z,20.00
2023-02-09T08:22:24.668Z,20.92
2023-02-09T08:27:26.692Z,20.05
2023-02-09T08:32:28.122Z,18.60
2023-02-09T08:37:29.587Z,22.85
2023-02-09T08:42:31.063Z,26.88
2023-02-09T08:47:32.546Z,24.75
2023-02-09T08:52:33.976Z,21.75
2023-02-09T08:57:44.058Z,25.25
2023-02-09T09:02:46.275Z,24.00
2023-02-09T09:07:48.118Z,21.88
2023-02-09T09:12:49.593Z,21.05
2023-02-09T09:17:51.075Z,21.58
2023-02-09T09:22:52.589Z,19.20
2023-02-09T09:27:54.091Z,20.77
2023-02-09T09:32:55.628Z,18.95
2023-02-09T09:37:58.412Z,22.65
2023-02-09T09:43:19.015Z,20.23
2023-02-09T09:48:35.019Z,20.25
2023-02-09T09:53:36.888Z,17.27
2023-02-09T09:58:43.711Z,18.65
2023-02-09T10:03:45.220Z,16.20
2023-02-09T10:09:01.199Z,20.80
2023-02-09T10:14:02.817Z,17.75
2023-02-09T10:19:17.175Z,17.38
2023-02-09T10:24:27.040Z,18.92
2023-02-09T10:29:28.639Z,14.57
2023-02-09T10:34:38.943Z,19.10
2023-02-09T10:39:40.711Z,16.25
2023-02-09T10:44:49.548Z,17.90
2023-02-09T10:49:55.048Z,15.05
2023-02-09T10:55:00.658Z,17.60
2023-02-09T11:00:26.594Z,14.70
2023-02-09T11:05:32.123Z,16.63
2023-02-09T11:10:40.325Z,14.77
2023-02-09T11:15:50.398Z,14.80
2023-02-09T11:21:01.102Z,13.77
2023-02-09T11:26:20.427Z,13.10
2023-02-09T11:31:34.072Z,14.55
2023-02-09T11:37:05.435Z,13.65
2023-02-09T11:42:34.538Z,14.68
2023-02-09T11:47:53.475Z,13.80
2023-02-09T11:52:59.331Z,14.68
2023-02-09T11:58:33.374Z,13.57
2023-02-09T12:03:34.821Z,13.18
2023-02-09T12:08:55.073Z,14.13
2023-02-09T12:14:14.188Z,13.07
2023-02-09T12:19:25.970Z,11.20
2023-02-09T12:24:39.151Z,16.08
2023-02-09T12:29:41.590Z,11.52
2023-02-09T12:34:49.427Z,12.37
2023-02-09T12:40:06.016Z,12.13
2023-02-09T12:45:35.117Z,10.60
2023-02-09T12:50:43.581Z,13.80
2023-02-09T12:56:01.559Z,13.32
2023-02-09T13:01:03.686Z,15.10
2023-02-09T13:06:10.067Z,13.40
2023-02-09T13:11:23.391Z,15.85
2023-02-09T13:16:24.823Z,14.43
2023-02-09T13:21:57.589Z,12.93
2023-02-09T13:26:59.593Z,12.07
2023-02-09T13:32:17.990Z,12.95
2023-02-09T13:37:49.002Z,12.48
2023-02-09T13:43:06.747Z,10.10
2023-02-09T13:48:24.573Z,10.88
2023-02-09T13:53:28.264Z,10.85
2023-02-09T13:58:35.293Z,11.43
2023-02-09T14:03:57.517Z,13.00
2023-02-09T14:09:02.407Z,10.23
2023-02-09T14:14:09.291Z,9.90
2023-02-09T14:19:31.041Z,12.90
2023-02-09T14:24:43.813Z,10.50
2023-02-09T14:29:47.715Z,10.75
2023-02-09T14:34:49.758Z,10.63
2023-02-09T14:39:55.524Z,10.35
2023-02-09T14:45:00.194Z,9.15
2023-02-09T14:50:02.955Z,12.57
2023-02-09T14:55:07.846Z,12.02
2023-02-09T15:00:17.009Z,10.32
2023-02-09T15:05:20.001Z,10.80
2023-02-09T15:10:27.367Z,12.07
2023-02-09T15:15:29.025Z,10.82
2023-02-09T15:20:31.406Z,10.85
2023-02-09T15:25:32.931Z,14.30
2023-02-09T15:30:35.000Z,12.70
2023-02-09T15:35:36.463Z,13.68
2023-02-09T15:41:07.919Z,14.32
2023-02-09T15:46:21.957Z,14.93
2023-02-09T15:51:26.046Z,15.02
2023-02-09T15:56:28.130Z,15.10
2023-02-09T16:01:33.827Z,16.88
2023-02-09T16:06:35.663Z,17.77
2023-02-09T16:11:40.510Z,17.38
2023-02-09T16:16:43.985Z,17.40
2023-02-09T16:21:49.673Z,17.10
2023-02-09T16:26:51.386Z,18.20
2023-02-09T16:31:53.014Z,17.98
2023-02-09T16:36:54.451Z,21.33
2023-02-09T16:41:57.246Z,18.27
2023-02-09T16:47:00.519Z,22.75
2023-02-09T16:52:06.280Z,22.45
2023-02-09T16:57:11.623Z,20.25
2023-02-09T17:02:33.748Z,19.20
2023-02-09T17:07:48.765Z,19.40
2023-02-09T17:12:55.339Z,20.63
2023-02-09T17:18:02.242Z,19.30
2023-02-09T17:23:04.494Z,20.88
2023-02-09T17:28:06.007Z,23.33
2023-02-09T17:33:15.942Z,20.35
2023-02-09T17:38:46.753Z,22.70
2023-02-09T17:43:50.526Z,18.88
2023-02-09T17:48:51.957Z,22.73
2023-02-09T17:53:53.374Z,26.67
2023-02-09T17:58:57.033Z,22.67
2023-02-09T18:04:00.870Z,24.58
2023-02-09T18:09:04.798Z,23.50
2023-02-09T18:14:06.514Z,22.30
2023-02-09T18:19:09.250Z,21.23
2023-02-09T18:24:10.864Z,22.02
2023-02-09T18:29:12.362Z,20.50
2023-02-09T18:34:15.517Z,25.02
2023-02-09T18:44:18.647Z,22.65
2023-02-09T18:49:20.470Z,22.05
2023-02-09T18:54:21.947Z,22.10
2023-02-09T18:59:27.938Z,24.50
2023-02-09T19:04:29.366Z,21.85
2023-02-09T19:09:30.800Z,23.77
2023-02-09T19:14:37.416Z,22.92
2023-02-09T19:19:38.963Z,25.15
2023-02-09T19:24:40.462Z,21.73
2023-02-09T19:29:42.307Z,20.42
2023-02-09T19:34:45.794Z,23.02
2023-02-09T19:40:00.257Z,21.15
2023-02-09T19:45:02.086Z,23.08
2023-02-09T19:50:04.238Z,22.20
2023-02-09T19:55:06.203Z,22.52
2023-02-09T20:00:08.470Z,21.42
2023-02-09T20:05:10.057Z,23.57
2023-02-09T20:10:11.647Z,21.15
2023-02-09T20:15:13.114Z,19.27
2023-02-09T20:20:14.731Z,21.42
2023-02-09T20:25:17.455Z,19.17
2023-02-09T20:30:19.004Z,21.38
2023-02-09T20:35:20.497Z,20.50
2023-02-09T20:40:22.729Z,20.40
2023-02-09T20:45:43.254Z,20.55
2023-02-09T20:50:45.334Z,22.65
2023-02-09T20:55:46.938Z,20.80
2023-02-09T21:00:48.881Z,21.73
2023-02-09T21:05:50.485Z,23.55
2023-02-09T21:10:58.688Z,18.20
2023-02-09T21:16:00.311Z,20.85
2023-02-09T21:21:07.731Z,20.35
2023-02-09T21:26:11.896Z,17.38
2023-02-09T21:31:16.402Z,17.77
2023-02-09T21:36:17.913Z,16.73
2023-02-09T21:41:40.255Z,16.92
2023-02-09T21:46:42.346Z,16.67
2023-02-09T21:51:43.800Z,15.32
2023-02-09T21:56:45.372Z,17.85
2023-02-09T22:01:46.809Z,13.18
2023-02-09T22:06:48.994Z,16.25
2023-02-09T22:11:50.991Z,14.07
2023-02-09T22:16:52.466Z,14.88
2023-02-09T22:21:56.627Z,15.85
2023-02-09T22:26:58.042Z,16.70
2023-02-09T22:31:59.447Z,15.73
2023-02-09T22:37:00.854Z,16.35
2023-02-09T22:42:02.260Z,17.02
2023-02-09T22:47:04.039Z,14.63
2023-02-09T22:52:05.585Z,15.82
2023-02-09T22:57:07.173Z,15.85
2023-02-09T23:02:09.634Z,13.80
2023-02-09T23:07:12.395Z,17.50
2023-02-09T23:12:13.848Z,17.40
2023-02-09T23:17:15.310Z,13.32
2023-02-09T23:22:16.738Z,17.17
2023-02-09T23:27:19.259Z,14.57
2023-02-09T23:32:20.694Z,14.40
2023-02-09T23:37:36.892Z,14.93
2023-02-09T23:42:39.217Z,16.25
2023-02-09T23:47:40.664Z,16.35
2023-02-09T23:52:42.345Z,14.23
2023-02-09T23:57:43.838Z,16.15
